sensor_id;sensor_type;location;lat;lon;timestamp;pressure;altitude;pressure_sealevel;temperature;humidity
12781;BME280;6454;43.304;24.344;2024-03-06T00:00:12;100243.38;;;7.52;87.07
12781;BME280;6454;43.304;24.344;2024-03-06T00:02:38;100235.44;;;7.50;88.08
12781;BME280;6454;43.304;24.344;2024-03-06T00:08:25;100230.75;;;7.32;88.77
12781;BME280;6454;43.304;24.344;2024-03-06T00:10:52;100221.16;;;7.35;87.35
12781;BME280;6454;43.304;24.344;2024-03-06T00:13:17;100234.81;;;7.35;88.24
12781;BME280;6454;43.304;24.344;2024-03-06T00:15:43;100233.72;;;7.36;86.69
12781;BME280;6454;43.304;24.344;2024-03-06T00:18:08;100233.06;;;7.44;87.12
12781;BME280;6454;43.304;24.344;2024-03-06T00:20:35;100226.16;;;7.51;87.39
12781;BME280;6454;43.304;24.344;2024-03-06T00:23:00;100232.06;;;7.58;87.03
12781;BME280;6454;43.304;24.344;2024-03-06T00:25:26;100219.28;;;7.54;85.29
12781;BME280;6454;43.304;24.344;2024-03-06T00:27:51;100233.53;;;7.51;86.23
12781;BME280;6454;43.304;24.344;2024-03-06T00:30:17;100227.25;;;7.50;86.04
12781;BME280;6454;43.304;24.344;2024-03-06T00:32:43;100244.94;;;7.58;86.49
12781;BME280;6454;43.304;24.344;2024-03-06T00:35:08;100227.78;;;7.52;87.20
12781;BME280;6454;43.304;24.344;2024-03-06T00:37:34;100235.56;;;7.64;85.12
12781;BME280;6454;43.304;24.344;2024-03-06T00:39:59;100231.72;;;7.65;84.46
12781;BME280;6454;43.304;24.344;2024-03-06T00:42:24;100242.75;;;7.78;86.17
12781;BME280;6454;43.304;24.344;2024-03-06T00:44:50;100232.06;;;7.82;84.07
12781;BME280;6454;43.304;24.344;2024-03-06T00:47:16;100242.94;;;7.87;83.89
12781;BME280;6454;43.304;24.344;2024-03-06T00:49:41;100244.84;;;7.87;83.52
12781;BME280;6454;43.304;24.344;2024-03-06T00:52:07;100235.00;;;7.86;84.07
12781;BME280;6454;43.304;24.344;2024-03-06T00:54:33;100227.59;;;7.86;84.03
12781;BME280;6454;43.304;24.344;2024-03-06T00:56:59;100233.59;;;7.88;83.11
12781;BME280;6454;43.304;24.344;2024-03-06T00:59:25;100245.16;;;7.85;83.40
12781;BME280;6454;43.304;24.344;2024-03-06T01:01:50;100240.78;;;7.84;82.76
12781;BME280;6454;43.304;24.344;2024-03-06T01:04:16;100244.03;;;7.86;82.11
12781;BME280;6454;43.304;24.344;2024-03-06T01:06:41;100236.69;;;7.82;81.66
12781;BME280;6454;43.304;24.344;2024-03-06T01:09:06;100246.81;;;7.81;82.64
12781;BME280;6454;43.304;24.344;2024-03-06T01:11:32;100248.53;;;7.77;82.77
12781;BME280;6454;43.304;24.344;2024-03-06T01:13:57;100244.00;;;7.67;82.70
12781;BME280;6454;43.304;24.344;2024-03-06T01:16:26;100241.03;;;7.64;83.29
12781;BME280;6454;43.304;24.344;2024-03-06T01:18:51;100253.09;;;7.63;82.11
12781;BME280;6454;43.304;24.344;2024-03-06T01:21:18;100258.81;;;7.61;83.50
12781;BME280;6454;43.304;24.344;2024-03-06T01:23:43;100242.25;;;7.53;83.89
12781;BME280;6454;43.304;24.344;2024-03-06T01:26:10;100250.41;;;7.58;82.51
12781;BME280;6454;43.304;24.344;2024-03-06T01:28:36;100256.66;;;7.58;83.00
12781;BME280;6454;43.304;24.344;2024-03-06T01:31:02;100257.78;;;7.57;83.01
12781;BME280;6454;43.304;24.344;2024-03-06T01:33:27;100261.88;;;7.60;82.94
12781;BME280;6454;43.304;24.344;2024-03-06T01:35:53;100268.66;;;7.62;84.34
12781;BME280;6454;43.304;24.344;2024-03-06T01:38:18;100259.94;;;7.60;84.25
12781;BME280;6454;43.304;24.344;2024-03-06T01:40:44;100270.81;;;7.65;82.71
12781;BME280;6454;43.304;24.344;2024-03-06T01:43:20;100273.25;;;7.67;83.15
12781;BME280;6454;43.304;24.344;2024-03-06T01:45:47;100267.22;;;7.70;83.98
12781;BME280;6454;43.304;24.344;2024-03-06T01:48:13;100270.00;;;7.65;84.32
12781;BME280;6454;43.304;24.344;2024-03-06T01:50:40;100260.81;;;7.56;82.66
12781;BME280;6454;43.304;24.344;2024-03-06T01:53:06;100278.16;;;7.70;83.46
12781;BME280;6454;43.304;24.344;2024-03-06T01:55:31;100267.56;;;7.63;83.28
12781;BME280;6454;43.304;24.344;2024-03-06T01:57:57;100270.59;;;7.62;83.61
12781;BME280;6454;43.304;24.344;2024-03-06T02:00:22;100259.66;;;7.62;82.66
12781;BME280;6454;43.304;24.344;2024-03-06T02:02:48;100271.59;;;7.71;83.69
12781;BME280;6454;43.304;24.344;2024-03-06T02:05:14;100267.72;;;7.72;84.09
12781;BME280;6454;43.304;24.344;2024-03-06T02:07:42;100261.22;;;7.68;85.07
12781;BME280;6454;43.304;24.344;2024-03-06T02:10:10;100256.78;;;7.72;82.76
12781;BME280;6454;43.304;24.344;2024-03-06T02:12:37;100264.94;;;7.77;83.72
12781;BME280;6454;43.304;24.344;2024-03-06T02:15:03;100255.16;;;7.71;83.69
12781;BME280;6454;43.304;24.344;2024-03-06T02:17:29;100263.00;;;7.77;83.88
12781;BME280;6454;43.304;24.344;2024-03-06T02:19:55;100267.69;;;7.77;82.22
12781;BME280;6454;43.304;24.344;2024-03-06T02:22:23;100249.97;;;7.69;84.27
12781;BME280;6454;43.304;24.344;2024-03-06T02:24:49;100273.72;;;7.74;82.08
12781;BME280;6454;43.304;24.344;2024-03-06T02:27:15;100265.06;;;7.67;82.91
12781;BME280;6454;43.304;24.344;2024-03-06T02:29:41;100274.25;;;7.76;83.23
12781;BME280;6454;43.304;24.344;2024-03-06T02:32:06;100267.13;;;7.75;82.74
12781;BME280;6454;43.304;24.344;2024-03-06T02:34:32;100275.00;;;7.82;82.22
12781;BME280;6454;43.304;24.344;2024-03-06T02:36:57;100267.44;;;7.73;82.55
12781;BME280;6454;43.304;24.344;2024-03-06T02:39:23;100277.75;;;7.82;84.44
12781;BME280;6454;43.304;24.344;2024-03-06T02:41:48;100274.50;;;7.79;84.20
12781;BME280;6454;43.304;24.344;2024-03-06T02:44:14;100268.78;;;7.76;83.68
12781;BME280;6454;43.304;24.344;2024-03-06T02:46:40;100288.38;;;7.83;84.56
12781;BME280;6454;43.304;24.344;2024-03-06T02:49:06;100279.88;;;7.85;83.00
12781;BME280;6454;43.304;24.344;2024-03-06T02:51:31;100281.50;;;7.86;83.42
12781;BME280;6454;43.304;24.344;2024-03-06T02:53:57;100275.00;;;7.82;82.61
12781;BME280;6454;43.304;24.344;2024-03-06T02:56:22;100289.78;;;7.80;83.96
12781;BME280;6454;43.304;24.344;2024-03-06T02:58:48;100288.38;;;7.83;83.56
12781;BME280;6454;43.304;24.344;2024-03-06T03:01:15;100293.25;;;7.86;83.06
12781;BME280;6454;43.304;24.344;2024-03-06T03:03:41;100290.00;;;7.84;84.36
12781;BME280;6454;43.304;24.344;2024-03-06T03:06:07;100284.09;;;7.77;83.87
12781;BME280;6454;43.304;24.344;2024-03-06T03:08:33;100279.72;;;7.76;83.66
12781;BME280;6454;43.304;24.344;2024-03-06T03:10:58;100285.69;;;7.78;83.83
12781;BME280;6454;43.304;24.344;2024-03-06T03:13:23;100285.13;;;7.81;83.39
12781;BME280;6454;43.304;24.344;2024-03-06T03:15:49;100275.34;;;7.75;84.05
12781;BME280;6454;43.304;24.344;2024-03-06T03:18:16;100280.81;;;7.75;83.50
12781;BME280;6454;43.304;24.344;2024-03-06T03:20:44;100294.97;;;7.82;84.39
12781;BME280;6454;43.304;24.344;2024-03-06T03:23:09;100277.28;;;7.74;83.38
12781;BME280;6454;43.304;24.344;2024-03-06T03:25:37;100290.09;;;7.79;82.95
12781;BME280;6454;43.304;24.344;2024-03-06T03:28:03;100292.00;;;7.78;84.39
12781;BME280;6454;43.304;24.344;2024-03-06T03:30:29;100296.44;;;7.74;84.24
12781;BME280;6454;43.304;24.344;2024-03-06T03:32:55;100290.16;;;7.74;84.68
12781;BME280;6454;43.304;24.344;2024-03-06T03:35:20;100283.56;;;7.75;83.36
12781;BME280;6454;43.304;24.344;2024-03-06T03:37:51;100303.25;;;7.77;82.87
12781;BME280;6454;43.304;24.344;2024-03-06T03:40:17;100297.00;;;7.71;83.85
12781;BME280;6454;43.304;24.344;2024-03-06T03:42:44;100289.16;;;7.65;84.35
12781;BME280;6454;43.304;24.344;2024-03-06T03:45:09;100303.25;;;7.77;83.53
12781;BME280;6454;43.304;24.344;2024-03-06T03:47:34;100296.66;;;7.78;83.80
12781;BME280;6454;43.304;24.344;2024-03-06T03:50:00;100308.66;;;7.82;83.59
12781;BME280;6454;43.304;24.344;2024-03-06T03:52:25;100306.25;;;7.75;83.55
12781;BME280;6454;43.304;24.344;2024-03-06T03:54:51;100316.28;;;7.85;83.40
12781;BME280;6454;43.304;24.344;2024-03-06T03:57:17;100314.94;;;7.83;83.87
12781;BME280;6454;43.304;24.344;2024-03-06T03:59:42;100299.56;;;7.63;84.19
12781;BME280;6454;43.304;24.344;2024-03-06T04:02:08;100306.06;;;7.67;85.40
12781;BME280;6454;43.304;24.344;2024-03-06T04:04:34;100311.66;;;7.80;84.72
12781;BME280;6454;43.304;24.344;2024-03-06T04:07:00;100317.13;;;7.80;83.30
12781;BME280;6454;43.304;24.344;2024-03-06T04:09:27;100300.03;;;7.70;84.86
12781;BME280;6454;43.304;24.344;2024-03-06T04:11:53;100321.19;;;7.83;83.26
12781;BME280;6454;43.304;24.344;2024-03-06T04:14:18;100315.72;;;7.83;83.47
12781;BME280;6454;43.304;24.344;2024-03-06T04:16:45;100327.25;;;7.80;84.35
12781;BME280;6454;43.304;24.344;2024-03-06T04:19:11;100317.72;;;7.77;85.03
12781;BME280;6454;43.304;24.344;2024-03-06T04:21:43;100316.31;;;7.80;83.82
12781;BME280;6454;43.304;24.344;2024-03-06T04:24:09;100314.94;;;7.83;83.80
12781;BME280;6454;43.304;24.344;2024-03-06T04:26:34;100317.38;;;7.84;82.90
12781;BME280;6454;43.304;24.344;2024-03-06T04:29:00;100323.94;;;7.83;83.04
12781;BME280;6454;43.304;24.344;2024-03-06T04:31:26;100320.75;;;7.76;83.09
12781;BME280;6454;43.304;24.344;2024-03-06T04:33:51;100330.28;;;7.78;84.46
12781;BME280;6454;43.304;24.344;2024-03-06T04:36:17;100328.31;;;7.84;84.81
12781;BME280;6454;43.304;24.344;2024-03-06T04:38:43;100323.66;;;7.85;83.38
12781;BME280;6454;43.304;24.344;2024-03-06T04:41:08;100310.91;;;7.75;84.27
12781;BME280;6454;43.304;24.344;2024-03-06T04:43:34;100310.97;;;7.70;85.01
12781;BME280;6454;43.304;24.344;2024-03-06T04:46:00;100306.66;;;7.64;84.38
12781;BME280;6454;43.304;24.344;2024-03-06T04:48:25;100328.19;;;7.70;84.87
12781;BME280;6454;43.304;24.344;2024-03-06T04:50:51;100323.53;;;7.71;85.38
12781;BME280;6454;43.304;24.344;2024-03-06T04:53:17;100326.78;;;7.73;84.54
12781;BME280;6454;43.304;24.344;2024-03-06T04:55:42;100328.66;;;7.77;84.62
12781;BME280;6454;43.304;24.344;2024-03-06T04:58:07;100320.88;;;7.66;84.50
12781;BME280;6454;43.304;24.344;2024-03-06T05:00:34;100330.47;;;7.63;84.16
12781;BME280;6454;43.304;24.344;2024-03-06T05:02:59;100324.38;;;7.71;84.91
12781;BME280;6454;43.304;24.344;2024-03-06T05:05:25;100329.03;;;7.71;84.17
12781;BME280;6454;43.304;24.344;2024-03-06T05:07:50;100336.06;;;7.77;84.30
12781;BME280;6454;43.304;24.344;2024-03-06T05:10:16;100341.22;;;7.78;85.07
12781;BME280;6454;43.304;24.344;2024-03-06T05:12:42;100329.97;;;7.80;82.85
12781;BME280;6454;43.304;24.344;2024-03-06T05:15:08;100329.25;;;7.74;83.04
12781;BME280;6454;43.304;24.344;2024-03-06T05:17:34;100348.34;;;7.79;83.38
12781;BME280;6454;43.304;24.344;2024-03-06T05:19:59;100344.28;;;7.77;82.83
12781;BME280;6454;43.304;24.344;2024-03-06T05:22:25;100357.31;;;7.85;82.97
12781;BME280;6454;43.304;24.344;2024-03-06T05:24:51;100346.94;;;7.82;83.28
12781;BME280;6454;43.304;24.344;2024-03-06T05:27:18;100338.81;;;7.77;83.02
12781;BME280;6454;43.304;24.344;2024-03-06T05:29:44;100362.72;;;7.90;82.88
12781;BME280;6454;43.304;24.344;2024-03-06T05:32:09;100364.41;;;7.86;83.55
12781;BME280;6454;43.304;24.344;2024-03-06T05:34:35;100372.53;;;7.91;82.60
12781;BME280;6454;43.304;24.344;2024-03-06T05:37:01;100373.59;;;7.95;83.32
12781;BME280;6454;43.304;24.344;2024-03-06T05:39:29;100373.59;;;7.95;83.76
12781;BME280;6454;43.304;24.344;2024-03-06T05:41:55;100378.56;;;7.93;83.03
12781;BME280;6454;43.304;24.344;2024-03-06T05:44:21;100381.75;;;8.00;82.29
12781;BME280;6454;43.304;24.344;2024-03-06T05:46:46;100383.16;;;7.98;83.12
12781;BME280;6454;43.304;24.344;2024-03-06T05:49:13;100394.34;;;8.01;83.21
12781;BME280;6454;43.304;24.344;2024-03-06T05:51:39;100383.44;;;7.96;82.63
12781;BME280;6454;43.304;24.344;2024-03-06T05:54:04;100383.97;;;7.98;83.12
12781;BME280;6454;43.304;24.344;2024-03-06T05:56:34;100387.16;;;8.05;81.64
12781;BME280;6454;43.304;24.344;2024-03-06T05:58:59;100396.44;;;8.09;83.54
12781;BME280;6454;43.304;24.344;2024-03-06T06:01:30;100388.50;;;8.08;82.65
12781;BME280;6454;43.304;24.344;2024-03-06T06:03:57;100383.84;;;8.08;82.63
12781;BME280;6454;43.304;24.344;2024-03-06T06:06:23;100379.53;;;8.02;82.34
12781;BME280;6454;43.304;24.344;2024-03-06T06:08:48;100390.13;;;8.09;83.02
12781;BME280;6454;43.304;24.344;2024-03-06T06:11:14;100381.03;;;8.13;83.63
12781;BME280;6454;43.304;24.344;2024-03-06T06:13:39;100390.25;;;8.22;82.64
12781;BME280;6454;43.304;24.344;2024-03-06T06:16:05;100395.72;;;8.22;83.77
12781;BME280;6454;43.304;24.344;2024-03-06T06:18:32;100387.25;;;8.19;82.58
12781;BME280;6454;43.304;24.344;2024-03-06T06:20:58;100395.19;;;8.20;82.30
12781;BME280;6454;43.304;24.344;2024-03-06T06:23:24;100400.06;;;8.28;82.60
12781;BME280;6454;43.304;24.344;2024-03-06T06:25:49;100393.47;;;8.29;82.78
12781;BME280;6454;43.304;24.344;2024-03-06T06:28:15;100392.13;;;8.27;81.58
12781;BME280;6454;43.304;24.344;2024-03-06T06:30:40;100408.22;;;8.33;82.94
12781;BME280;6454;43.304;24.344;2024-03-06T06:33:06;100414.72;;;8.37;82.79
12781;BME280;6454;43.304;24.344;2024-03-06T06:35:32;100410.28;;;8.42;82.44
12781;BME280;6454;43.304;24.344;2024-03-06T06:38:00;100408.66;;;8.41;81.25
12781;BME280;6454;43.304;24.344;2024-03-06T06:40:25;100415.19;;;8.45;81.76
12781;BME280;6454;43.304;24.344;2024-03-06T06:42:50;100414.59;;;8.48;81.81
12781;BME280;6454;43.304;24.344;2024-03-06T06:45:17;100409.63;;;8.50;81.55
12781;BME280;6454;43.304;24.344;2024-03-06T06:47:43;100411.31;;;8.46;81.64
12781;BME280;6454;43.304;24.344;2024-03-06T06:50:09;100400.50;;;8.35;82.28
12781;BME280;6454;43.304;24.344;2024-03-06T06:52:35;100416.22;;;8.49;81.87
12781;BME280;6454;43.304;24.344;2024-03-06T06:55:01;100412.38;;;8.50;81.46
12781;BME280;6454;43.304;24.344;2024-03-06T06:57:27;100423.59;;;8.48;81.83
12781;BME280;6454;43.304;24.344;2024-03-06T06:59:52;100417.28;;;8.53;80.19
12781;BME280;6454;43.304;24.344;2024-03-06T07:02:18;100421.56;;;8.59;80.76
12781;BME280;6454;43.304;24.344;2024-03-06T07:04:44;100418.28;;;8.57;80.53
12781;BME280;6454;43.304;24.344;2024-03-06T07:07:09;100416.09;;;8.59;79.87
12781;BME280;6454;43.304;24.344;2024-03-06T07:09:35;100415.47;;;8.62;79.70
12781;BME280;6454;43.304;24.344;2024-03-06T07:12:00;100406.75;;;8.60;79.95
12781;BME280;6454;43.304;24.344;2024-03-06T07:14:26;100410.47;;;8.69;81.05
12781;BME280;6454;43.304;24.344;2024-03-06T07:16:51;100413.13;;;8.74;80.36
12781;BME280;6454;43.304;24.344;2024-03-06T07:19:17;100414.78;;;8.75;79.79
12781;BME280;6454;43.304;24.344;2024-03-06T07:21:42;100418.03;;;8.77;79.97
12781;BME280;6454;43.304;24.344;2024-03-06T07:24:08;100411.41;;;8.78;80.07
12781;BME280;6454;43.304;24.344;2024-03-06T07:26:34;100415.22;;;8.82;78.96
12781;BME280;6454;43.304;24.344;2024-03-06T07:29:00;100423.66;;;8.85;79.42
12781;BME280;6454;43.304;24.344;2024-03-06T07:31:26;100422.19;;;8.74;79.41
12781;BME280;6454;43.304;24.344;2024-03-06T07:33:52;100422.69;;;8.76;79.71
12781;BME280;6454;43.304;24.344;2024-03-06T07:36:17;100424.53;;;8.81;80.00
12781;BME280;6454;43.304;24.344;2024-03-06T07:38:43;100425.81;;;8.88;78.85
12781;BME280;6454;43.304;24.344;2024-03-06T07:41:08;100421.28;;;8.79;78.73
12781;BME280;6454;43.304;24.344;2024-03-06T07:43:35;100421.06;;;8.75;78.67
12781;BME280;6454;43.304;24.344;2024-03-06T07:46:00;100425.75;;;8.75;80.06
12781;BME280;6454;43.304;24.344;2024-03-06T07:48:26;100423.28;;;8.73;79.94
12781;BME280;6454;43.304;24.344;2024-03-06T07:50:51;100425.34;;;8.81;79.97
12781;BME280;6454;43.304;24.344;2024-03-06T07:53:17;100422.38;;;8.78;80.30
12781;BME280;6454;43.304;24.344;2024-03-06T07:55:43;100427.19;;;8.86;80.11
12781;BME280;6454;43.304;24.344;2024-03-06T07:58:09;100430.84;;;8.81;79.58
12781;BME280;6454;43.304;24.344;2024-03-06T08:00:34;100430.59;;;8.59;81.03
12781;BME280;6454;43.304;24.344;2024-03-06T08:03:00;100440.59;;;8.50;81.99
12781;BME280;6454;43.304;24.344;2024-03-06T08:05:28;100430.50;;;8.46;81.14
12781;BME280;6454;43.304;24.344;2024-03-06T08:07:53;100431.63;;;8.16;82.42
12781;BME280;6454;43.304;24.344;2024-03-06T08:10:19;100449.94;;;8.20;82.84
12781;BME280;6454;43.304;24.344;2024-03-06T08:12:45;100457.69;;;8.13;83.29
12781;BME280;6454;43.304;24.344;2024-03-06T08:15:12;100450.34;;;8.09;83.82
12781;BME280;6454;43.304;24.344;2024-03-06T08:17:39;100454.88;;;8.18;83.66
12781;BME280;6454;43.304;24.344;2024-03-06T08:20:08;100457.97;;;8.12;84.63
12781;BME280;6454;43.304;24.344;2024-03-06T08:22:36;100460.59;;;8.22;83.39
12781;BME280;6454;43.304;24.344;2024-03-06T08:25:06;100473.47;;;8.21;84.31
12781;BME280;6454;43.304;24.344;2024-03-06T08:27:32;100465.66;;;8.10;83.31
12781;BME280;6454;43.304;24.344;2024-03-06T08:29:58;100478.72;;;8.18;83.57
12781;BME280;6454;43.304;24.344;2024-03-06T08:32:23;100457.69;;;8.13;82.13
12781;BME280;6454;43.304;24.344;2024-03-06T08:34:48;100461.41;;;8.22;82.58
12781;BME280;6454;43.304;24.344;2024-03-06T08:37:14;100473.91;;;8.33;83.03
12781;BME280;6454;43.304;24.344;2024-03-06T08:39:40;100459.72;;;8.31;83.16
12781;BME280;6454;43.304;24.344;2024-03-06T08:42:05;100455.84;;;8.32;81.80
12781;BME280;6454;43.304;24.344;2024-03-06T08:44:31;100476.00;;;8.42;81.75
12781;BME280;6454;43.304;24.344;2024-03-06T08:46:56;100460.09;;;8.44;81.29
12781;BME280;6454;43.304;24.344;2024-03-06T08:49:22;100477.22;;;8.54;81.86
12781;BME280;6454;43.304;24.344;2024-03-06T08:51:47;100471.97;;;8.58;81.87
12781;BME280;6454;43.304;24.344;2024-03-06T08:54:13;100471.09;;;8.62;81.73
12781;BME280;6454;43.304;24.344;2024-03-06T08:56:38;100452.28;;;8.56;82.09
12781;BME280;6454;43.304;24.344;2024-03-06T08:59:04;100452.72;;;8.63;82.50
12781;BME280;6454;43.304;24.344;2024-03-06T09:01:29;100465.72;;;8.76;82.04
12781;BME280;6454;43.304;24.344;2024-03-06T09:03:55;100466.97;;;8.83;82.03
12781;BME280;6454;43.304;24.344;2024-03-06T09:06:22;100467.94;;;8.92;81.47
12781;BME280;6454;43.304;24.344;2024-03-06T09:08:48;100468.69;;;8.98;81.90
12781;BME280;6454;43.304;24.344;2024-03-06T09:11:13;100469.13;;;9.05;80.95
12781;BME280;6454;43.304;24.344;2024-03-06T09:13:39;100471.44;;;9.17;80.58
12781;BME280;6454;43.304;24.344;2024-03-06T09:16:05;100474.09;;;9.22;80.32
12781;BME280;6454;43.304;24.344;2024-03-06T09:18:30;100466.91;;;9.26;80.47
12781;BME280;6454;43.304;24.344;2024-03-06T09:20:56;100462.84;;;9.23;78.44
12781;BME280;6454;43.304;24.344;2024-03-06T09:23:21;100445.25;;;9.24;79.40
12781;BME280;6454;43.304;24.344;2024-03-06T09:25:48;100459.34;;;9.36;79.54
12781;BME280;6454;43.304;24.344;2024-03-06T09:28:14;100461.41;;;9.44;77.74
12781;BME280;6454;43.304;24.344;2024-03-06T09:30:40;100452.66;;;9.42;76.97
12781;BME280;6454;43.304;24.344;2024-03-06T09:33:07;100453.69;;;9.46;76.54
12781;BME280;6454;43.304;24.344;2024-03-06T09:35:32;100462.66;;;9.52;77.18
12781;BME280;6454;43.304;24.344;2024-03-06T09:37:58;100457.38;;;9.55;78.16
12781;BME280;6454;43.304;24.344;2024-03-06T09:40:23;100456.97;;;9.62;77.75
12781;BME280;6454;43.304;24.344;2024-03-06T09:42:50;100466.97;;;9.72;76.74
12781;BME280;6454;43.304;24.344;2024-03-06T09:45:16;100471.56;;;9.76;75.83
12781;BME280;6454;43.304;24.344;2024-03-06T09:47:43;100469.03;;;9.80;75.97
12781;BME280;6454;43.304;24.344;2024-03-06T09:50:09;100469.84;;;9.80;74.84
12781;BME280;6454;43.304;24.344;2024-03-06T09:52:36;100456.50;;;9.74;75.00
12781;BME280;6454;43.304;24.344;2024-03-06T09:55:02;100462.72;;;9.79;74.42
12781;BME280;6454;43.304;24.344;2024-03-06T09:57:29;100477.09;;;9.90;74.81
12781;BME280;6454;43.304;24.344;2024-03-06T09:59:55;100475.38;;;9.94;74.36
12781;BME280;6454;43.304;24.344;2024-03-06T10:02:46;100467.66;;;9.96;74.81
12781;BME280;6454;43.304;24.344;2024-03-06T10:05:22;100466.53;;;9.97;74.21
12781;BME280;6454;43.304;24.344;2024-03-06T10:07:52;100462.56;;;10.03;74.29
12781;BME280;6454;43.304;24.344;2024-03-06T10:10:21;100463.28;;;10.08;74.61
12781;BME280;6454;43.304;24.344;2024-03-06T10:12:50;100466.84;;;10.09;75.14
12781;BME280;6454;43.304;24.344;2024-03-06T10:15:16;100470.56;;;10.18;74.48
12781;BME280;6454;43.304;24.344;2024-03-06T10:17:41;100459.59;;;10.18;74.94
12781;BME280;6454;43.304;24.344;2024-03-06T10:20:21;100458.88;;;10.26;73.41
12781;BME280;6454;43.304;24.344;2024-03-06T10:22:51;100476.88;;;10.32;72.97
12781;BME280;6454;43.304;24.344;2024-03-06T10:25:20;100462.63;;;10.30;73.10
12781;BME280;6454;43.304;24.344;2024-03-06T10:28:05;100474.31;;;10.36;73.65
12781;BME280;6454;43.304;24.344;2024-03-06T10:30:36;100469.06;;;10.39;73.41
12781;BME280;6454;43.304;24.344;2024-03-06T10:33:03;100458.28;;;10.43;72.38
12781;BME280;6454;43.304;24.344;2024-03-06T10:35:28;100452.66;;;10.48;72.88
12781;BME280;6454;43.304;24.344;2024-03-06T10:37:54;100458.38;;;10.51;72.62
12781;BME280;6454;43.304;24.344;2024-03-06T10:40:20;100436.41;;;10.51;71.86
12781;BME280;6454;43.304;24.344;2024-03-06T10:42:46;100430.97;;;10.46;72.18
12781;BME280;6454;43.304;24.344;2024-03-06T10:45:13;100438.81;;;10.53;72.11
12781;BME280;6454;43.304;24.344;2024-03-06T10:48:19;100431.91;;;10.55;70.78
12781;BME280;6454;43.304;24.344;2024-03-06T10:51:03;100432.31;;;10.62;70.67
12781;BME280;6454;43.304;24.344;2024-03-06T10:53:31;100440.81;;;10.74;70.94
12781;BME280;6454;43.304;24.344;2024-03-06T10:55:58;100435.34;;;10.74;70.76
12781;BME280;6454;43.304;24.344;2024-03-06T10:58:25;100424.66;;;10.73;70.85
12781;BME280;6454;43.304;24.344;2024-03-06T11:00:55;100429.59;;;10.85;70.49
12781;BME280;6454;43.304;24.344;2024-03-06T11:03:23;100419.84;;;10.92;71.10
12781;BME280;6454;43.304;24.344;2024-03-06T11:05:51;100423.06;;;10.94;70.87
12781;BME280;6454;43.304;24.344;2024-03-06T11:08:17;100406.56;;;10.94;70.89
12781;BME280;6454;43.304;24.344;2024-03-06T11:10:43;100415.66;;;10.95;71.22
12781;BME280;6454;43.304;24.344;2024-03-06T11:13:30;100406.00;;;10.84;70.77
12781;BME280;6454;43.304;24.344;2024-03-06T11:15:58;100409.13;;;10.91;71.23
12781;BME280;6454;43.304;24.344;2024-03-06T11:23:32;100399.28;;;10.90;70.24
12781;BME280;6454;43.304;24.344;2024-03-06T11:28:30;100379.97;;;10.67;72.09
12781;BME280;6454;43.304;24.344;2024-03-06T11:31:06;100395.22;;;10.73;73.18
12781;BME280;6454;43.304;24.344;2024-03-06T11:33:42;100375.19;;;10.73;72.79
12781;BME280;6454;43.304;24.344;2024-03-06T11:41:29;100366.38;;;10.85;71.74
12781;BME280;6454;43.304;24.344;2024-03-06T11:43:55;100367.28;;;10.94;71.62
12781;BME280;6454;43.304;24.344;2024-03-06T11:46:22;100378.53;;;11.06;71.32
12781;BME280;6454;43.304;24.344;2024-03-06T11:48:52;100364.78;;;11.06;70.72
12781;BME280;6454;43.304;24.344;2024-03-06T11:51:19;100370.72;;;11.21;71.13
12781;BME280;6454;43.304;24.344;2024-03-06T11:53:45;100362.00;;;11.28;70.45
12781;BME280;6454;43.304;24.344;2024-03-06T11:56:11;100370.16;;;11.33;69.21
12781;BME280;6454;43.304;24.344;2024-03-06T11:58:36;100363.91;;;11.19;67.77
12781;BME280;6454;43.304;24.344;2024-03-06T12:04:24;100370.25;;;11.28;68.66
12781;BME280;6454;43.304;24.344;2024-03-06T12:06:50;100361.22;;;11.27;67.55
12781;BME280;6454;43.304;24.344;2024-03-06T12:09:16;100363.66;;;11.29;68.99
12781;BME280;6454;43.304;24.344;2024-03-06T12:11:42;100332.56;;;11.06;67.83
12781;BME280;6454;43.304;24.344;2024-03-06T12:14:15;100352.53;;;11.12;68.58
12781;BME280;6454;43.304;24.344;2024-03-06T12:16:42;100360.84;;;11.20;68.44
12781;BME280;6454;43.304;24.344;2024-03-06T12:19:08;100338.91;;;11.07;69.70
12781;BME280;6454;43.304;24.344;2024-03-06T12:21:35;100354.50;;;11.20;69.50
12781;BME280;6454;43.304;24.344;2024-03-06T12:24:04;100340.91;;;11.15;68.80
12781;BME280;6454;43.304;24.344;2024-03-06T12:26:31;100350.78;;;11.16;68.51
12781;BME280;6454;43.304;24.344;2024-03-06T12:29:06;100346.94;;;11.25;69.68
12781;BME280;6454;43.304;24.344;2024-03-06T12:31:33;100348.38;;;11.23;69.17
12781;BME280;6454;43.304;24.344;2024-03-06T12:33:59;100348.91;;;11.25;68.00
12781;BME280;6454;43.304;24.344;2024-03-06T12:36:25;100338.00;;;11.20;69.32
12781;BME280;6454;43.304;24.344;2024-03-06T12:38:54;100336.56;;;11.22;69.17
12781;BME280;6454;43.304;24.344;2024-03-06T12:41:20;100338.41;;;11.27;68.14
12781;BME280;6454;43.304;24.344;2024-03-06T12:43:46;100326.84;;;11.16;69.29
12781;BME280;6454;43.304;24.344;2024-03-06T12:46:11;100331.25;;;11.26;68.90
12781;BME280;6454;43.304;24.344;2024-03-06T12:48:37;100335.31;;;11.28;68.51
12781;BME280;6454;43.304;24.344;2024-03-06T12:51:03;100329.19;;;11.31;68.83
12781;BME280;6454;43.304;24.344;2024-03-06T12:53:30;100333.88;;;11.31;68.41
12781;BME280;6454;43.304;24.344;2024-03-06T12:55:57;100325.50;;;11.36;68.17
12781;BME280;6454;43.304;24.344;2024-03-06T12:58:22;100334.25;;;11.38;66.94
12781;BME280;6454;43.304;24.344;2024-03-06T13:00:48;100317.88;;;11.33;68.25
12781;BME280;6454;43.304;24.344;2024-03-06T13:03:13;100307.03;;;11.36;67.08
12781;BME280;6454;43.304;24.344;2024-03-06T13:05:39;100312.75;;;11.40;66.97
12781;BME280;6454;43.304;24.344;2024-03-06T13:08:05;100325.59;;;11.53;68.08
12781;BME280;6454;43.304;24.344;2024-03-06T13:10:31;100324.16;;;11.56;67.42
12781;BME280;6454;43.304;24.344;2024-03-06T13:12:57;100324.22;;;11.42;66.04